Time;durP1;ratioP1;P1;durP2;ratioP2;P2;SDS_P1;SDS_P2;PMS_P1;PMS_P2;Temp;Humidity;BMP_temperature;BMP_pressure;BME280_temperature;BME280_humidity;BME280_pressure;Samples;Min_cycle;Max_cycle;Signal;HPM_P1;HPM_P2
2023/04/11 00:00:19;;;;;;;10.60;9.57;;;;;;;11.97;100.00;101309.31;2532359;23;20214;-69
2023/04/11 00:01:19;;;;;;;10.57;9.57;;;;;;;11.95;100.00;101304.19;2531555;23;20512;-69
2023/04/11 00:02:21;;;;;;;10.33;9.33;;;;;;;11.44;100.00;101238.09;2532729;23;20550;-69
2023/04/11 00:03:22;;;;;;;11.07;9.70;;;;;;;11.91;100.00;101314.59;2532486;23;20154;-69
2023/04/11 00:04:24;;;;;;;11.03;9.37;;;;;;;11.77;100.00;101294.63;2532715;23;20409;-69
2023/04/11 00:05:30;;;;;;;10.80;9.70;;;;;;;11.78;100.00;101299.00;2532571;23;20580;-69
2023/04/11 00:06:32;;;;;;;10.30;9.30;;;;;;;11.81;100.00;101312.00;2531992;23;20390;-69
2023/04/11 00:07:33;;;;;;;10.50;9.23;;;;;;;11.72;100.00;101309.78;2532365;23;20464;-69
2023/04/11 00:08:33;;;;;;;10.00;9.00;;;;;;;11.69;100.00;101310.63;2532060;23;20386;-69
2023/04/11 00:09:34;;;;;;;10.40;9.40;;;;;;;11.68;100.00;101311.84;2531773;23;20473;-69
2023/04/11 00:10:34;;;;;;;11.10;10.00;;;;;;;11.69;100.00;101309.84;2532807;23;20209;-69
2023/04/11 00:11:35;;;;;;;12.27;10.50;;;;;;;11.67;100.00;101301.16;2532221;23;20378;-69
2023/04/11 00:12:35;;;;;;;13.43;10.20;;;;;;;11.20;100.00;101233.75;2532771;23;20240;-69
2023/04/11 00:13:36;;;;;;;16.63;10.63;;;;;;;11.68;100.00;101309.06;2532331;23;20158;-69
2023/04/11 00:14:37;;;;;;;12.07;9.97;;;;;;;11.64;100.00;101302.00;2532955;23;20153;-69
2023/04/11 00:15:38;;;;;;;10.50;9.50;;;;;;;10.96;100.00;101217.53;2532249;23;20491;-69
2023/04/11 00:16:40;;;;;;;11.43;10.23;;;;;;;11.60;100.00;101302.06;2531999;23;20157;-69
2023/04/11 00:17:44;;;;;;;9.93;8.93;;;;;;;11.25;100.00;101249.13;2532445;23;20435;-69
2023/04/11 00:18:44;;;;;;;10.90;9.73;;;;;;;11.57;100.00;101302.09;2531969;23;20386;-69
2023/04/11 00:19:45;;;;;;;10.73;9.63;;;;;;;11.54;100.00;101302.94;2531635;23;20405;-69
2023/04/11 00:20:45;;;;;;;11.23;9.50;;;;;;;11.54;100.00;101302.94;2532583;23;20159;-69
2023/04/11 00:21:46;;;;;;;10.60;9.53;;;;;;;11.48;100.00;101299.84;2532392;23;20217;-69
2023/04/11 00:22:46;;;;;;;12.73;9.70;;;;;;;11.50;100.00;101302.22;2532472;23;20150;-69
2023/04/11 00:23:47;;;;;;;12.13;9.87;;;;;;;11.55;100.00;101298.97;2532337;23;20156;-69
2023/04/11 00:24:47;;;;;;;12.40;9.37;;;;;;;11.56;100.00;101298.53;2519899;23;20594;-69
2023/04/11 00:25:48;;;;;;;11.73;9.87;;;;;;;11.59;100.00;101296.94;2507627;23;20165;-69
2023/04/11 00:26:48;;;;;;;10.57;9.47;;;;;;;11.55;100.00;101283.09;2507069;23;20174;-69
2023/04/11 00:27:49;;;;;;;10.00;9.00;;;;;;;11.62;100.00;101290.53;2519523;23;20187;-69
2023/04/11 00:28:49;;;;;;;11.33;9.40;;;;;;;10.78;100.00;101167.09;2532798;23;20675;-69
2023/04/11 00:29:51;;;;;;;10.73;9.47;;;;;;;11.59;100.00;101297.72;2518172;23;20186;-69
2023/04/11 00:30:52;;;;;;;11.37;9.23;;;;;;;11.64;100.00;101293.69;2519740;23;20155;-69
2023/04/11 00:31:54;;;;;;;12.63;9.50;;;;;;;11.64;100.00;101291.66;2532460;23;20408;-69
2023/04/11 00:32:54;;;;;;;10.80;9.63;;;;;;;11.62;100.00;101290.53;2532726;23;20160;-69
2023/04/11 00:33:55;;;;;;;12.53;9.70;;;;;;;11.64;100.00;101294.44;2532238;23;20477;-69
2023/04/11 00:34:55;;;;;;;12.83;9.70;;;;;;;11.61;100.00;101292.53;2532752;23;20177;-69
2023/04/11 00:35:55;;;;;;;10.30;8.87;;;;;;;11.61;100.00;101295.31;2532305;23;20666;-69
2023/04/11 00:36:56;;;;;;;11.23;9.43;;;;;;;11.59;100.00;101288.63;2532369;23;20154;-69
2023/04/11 00:37:57;;;;;;;12.70;9.67;;;;;;;11.57;100.00;101291.78;2532255;23;20150;-69
2023/04/11 00:39:00;;;;;;;12.87;9.90;;;;;;;11.54;100.00;101289.06;2532671;23;20193;-69
2023/04/11 00:40:00;;;;;;;12.13;9.80;;;;;;;11.05;100.00;101220.50;2531012;23;20385;-69
2023/04/11 00:41:01;;;;;;;10.90;9.80;;;;;;;11.57;100.00;101296.53;2532290;23;20389;-69
2023/04/11 00:42:06;;;;;;;11.20;9.60;;;;;;;11.49;100.00;101287.56;2532109;23;20614;-69
2023/04/11 00:43:07;;;;;;;11.30;9.37;;;;;;;11.07;100.00;101226.44;2532179;23;20563;-69
2023/04/11 00:44:08;;;;;;;12.40;9.33;;;;;;;11.52;100.00;101291.50;2532296;23;20382;-69
2023/04/11 00:45:09;;;;;;;9.83;8.67;;;;;;;11.33;100.00;101275.56;2532607;23;20154;-69
2023/04/11 00:46:10;;;;;;;12.33;9.13;;;;;;;11.27;100.00;101274.47;2532108;23;20414;-69
2023/04/11 00:47:11;;;;;;;10.13;8.90;;;;;;;11.41;100.00;101291.66;2532591;23;20178;-69
2023/04/11 00:48:11;;;;;;;11.10;9.60;;;;;;;11.30;100.00;101293.03;2532023;23;20236;-69
2023/04/11 00:49:12;;;;;;;11.43;9.07;;;;;;;10.98;100.00;101253.91;2531940;23;20153;-69
2023/04/11 00:50:14;;;;;;;10.70;9.60;;;;;;;11.16;100.00;101293.25;2531784;23;20181;-69
2023/04/11 00:51:15;;;;;;;10.70;9.43;;;;;;;10.72;100.00;101236.06;2531967;23;20502;-69
2023/04/11 00:52:15;;;;;;;10.67;9.60;;;;;;;11.01;100.00;101289.91;2532813;23;20385;-69
2023/04/11 00:53:17;;;;;;;10.63;9.57;;;;;;;11.05;100.00;101303.72;2532646;23;20212;-69
2023/04/11 00:54:18;;;;;;;10.93;9.73;;;;;;;10.98;100.00;101289.97;2532422;23;20160;-69
2023/04/11 00:55:18;;;;;;;11.53;10.33;;;;;;;10.91;100.00;101299.19;2532725;23;20384;-69
2023/04/11 00:56:19;;;;;;;11.23;9.80;;;;;;;10.80;100.00;101281.91;2532416;23;20162;-69
2023/04/11 00:57:21;;;;;;;10.87;9.77;;;;;;;10.84;100.00;101306.81;2532653;23;20240;-69
2023/04/11 00:58:22;;;;;;;11.43;10.23;;;;;;;10.79;100.00;101298.97;2531329;23;20207;-69
2023/04/11 00:59:22;;;;;;;10.57;9.47;;;;;;;10.25;100.00;101230.81;2531812;23;20168;-69
2023/04/11 01:00:23;;;;;;;11.70;9.50;;;;;;;10.36;100.00;101242.53;2532241;23;20392;-69
2023/04/11 01:01:24;;;;;;;13.25;9.90;;;;;;;10.65;100.00;101305.47;2531863;23;20161;-69
2023/04/11 01:02:25;;;;;;;13.17;10.17;;;;;;;10.47;100.00;101282.78;2532644;23;20152;-70
2023/04/11 01:03:26;;;;;;;10.68;9.65;;;;;;;10.64;100.00;101295.59;2532233;23;20602;-69
2023/04/11 01:04:28;;;;;;;11.68;10.48;;;;;;;10.25;100.00;101250.22;2532809;23;20164;-69
2023/04/11 01:05:31;;;;;;;11.23;9.82;;;;;;;10.58;100.00;101297.28;2532296;23;20155;-69
2023/04/11 01:06:32;;;;;;;10.82;9.73;;;;;;;10.61;100.00;101301.19;2532470;23;20176;-69
2023/04/11 01:07:34;;;;;;;11.00;9.90;;;;;;;10.58;100.00;101300.03;2532293;23;20697;-69
2023/04/11 01:08:37;;;;;;;11.20;10.10;;;;;;;10.54;100.00;101299.31;2531918;23;20616;-69
2023/04/11 01:09:38;;;;;;;11.20;10.10;;;;;;;10.56;100.00;101301.66;2518682;23;20162;-69
2023/04/11 01:10:40;;;;;;;12.02;10.82;;;;;;;10.55;100.00;101295.31;2519682;23;20717;-69
2023/04/11 01:11:41;;;;;;;12.05;10.82;;;;;;;10.52;100.00;101296.16;2531590;23;20279;-69
2023/04/11 01:12:43;;;;;;;10.77;9.67;;;;;;;10.54;100.00;101302.06;2519541;23;20153;-69
2023/04/11 01:13:44;;;;;;;11.13;10.03;;;;;;;10.15;100.00;101253.91;2519656;23;20381;-69
2023/04/11 01:14:46;;;;;;;10.97;9.87;;;;;;;9.76;100.00;101192.63;2532831;23;20376;-69
2023/04/11 01:15:47;;;;;;;12.50;10.13;;;;;;;10.44;100.00;101297.44;2532181;23;20188;-69
2023/04/11 01:16:49;;;;;;;10.93;9.57;;;;;;;10.49;100.00;101301.72;2532716;23;20374;-69
2023/04/11 01:17:54;;;;;;;10.90;9.75;;;;;;;10.51;100.00;101299.34;2532303;23;20157;-70
2023/04/11 01:18:54;;;;;;;12.13;10.30;;;;;;;10.47;100.00;101293.84;2531944;23;20153;-69
2023/04/11 01:19:54;;;;;;;11.17;9.93;;;;;;;10.18;100.00;101245.53;2531541;23;20671;-69
2023/04/11 01:20:56;;;;;;;11.00;9.70;;;;;;;10.58;100.00;101296.47;2532278;23;20167;-69
2023/04/11 01:21:57;;;;;;;11.57;9.90;;;;;;;10.56;100.00;101298.88;2531569;23;20160;-69
2023/04/11 01:23:01;;;;;;;10.80;9.70;;;;;;;10.57;100.00;101301.25;2532284;23;20382;-69
2023/04/11 01:24:02;;;;;;;11.15;10.05;;;;;;;10.58;100.00;101308.38;2532217;23;20153;-69
2023/04/11 01:25:03;;;;;;;10.45;9.07;;;;;;;10.57;100.00;101306.00;2532612;23;20279;-69
2023/04/11 01:26:04;;;;;;;11.13;9.25;;;;;;;10.57;100.00;101303.22;2532202;23;20155;-69
2023/04/11 01:27:05;;;;;;;11.13;10.03;;;;;;;10.52;100.00;101303.69;2532012;23;20213;-69
2023/04/11 01:28:07;;;;;;;10.93;9.83;;;;;;;10.14;100.00;101247.56;2532395;23;20483;-69
2023/04/11 01:29:08;;;;;;;11.43;9.97;;;;;;;10.06;100.00;101234.22;2531778;23;20623;-69
2023/04/11 01:30:09;;;;;;;11.33;10.10;;;;;;;10.53;100.00;101314.38;2533160;23;20900;-69
2023/04/11 01:31:09;;;;;;;11.40;9.50;;;;;;;10.55;100.00;101308.41;2532995;23;20607;-69
2023/04/11 01:32:10;;;;;;;11.10;9.67;;;;;;;10.52;100.00;101298.16;2532197;23;20192;-69
2023/04/11 01:33:11;;;;;;;10.73;9.63;;;;;;;10.40;100.00;101279.31;2533510;23;20157;-69
2023/04/11 01:34:13;;;;;;;12.77;9.82;;;;;;;10.44;100.00;101296.66;2532931;23;20215;-70
2023/04/11 01:35:16;;;;;;;10.57;9.48;;;;;;;10.54;100.00;101301.28;2533334;23;20164;-69
2023/04/11 01:36:16;;;;;;;13.00;10.30;;;;;;;10.11;100.00;101233.75;2533060;23;20162;-69
2023/04/11 01:37:16;;;;;;;10.60;9.50;;;;;;;10.52;100.00;101298.16;2533425;23;20384;-69
2023/04/11 01:38:17;;;;;;;10.27;9.27;;;;;;;10.22;100.00;101251.03;2533167;23;20155;-69
2023/04/11 01:39:17;;;;;;;10.33;9.20;;;;;;;10.09;100.00;101228.63;2531847;23;20241;-69
2023/04/11 01:40:18;;;;;;;11.17;9.20;;;;;;;10.35;100.00;101272.22;2533211;23;20658;-69
2023/04/11 01:41:20;;;;;;;12.43;9.47;;;;;;;10.53;100.00;101302.47;2519876;23;20172;-69
2023/04/11 01:42:21;;;;;;;10.60;9.50;;;;;;;10.15;100.00;101248.34;2520382;23;20160;-69
2023/04/11 01:43:22;;;;;;;10.57;9.07;;;;;;;10.06;100.00;101240.56;2532880;23;20620;-69
2023/04/11 01:44:24;;;;;;;10.43;9.33;;;;;;;10.52;100.00;101295.38;2533305;23;20558;-69
2023/04/11 01:45:25;;;;;;;10.00;9.00;;;;;;;10.53;100.00;101299.72;2533012;23;20613;-69
2023/04/11 01:46:25;;;;;;;10.30;9.20;;;;;;;10.33;100.00;101279.38;2533194;23;20377;-69
2023/04/11 01:47:26;;;;;;;10.43;9.33;;;;;;;9.98;100.00;101216.88;2533003;23;20428;-69
2023/04/11 01:48:27;;;;;;;10.57;9.47;;;;;;;10.46;100.00;101294.28;2532980;23;20158;-69
2023/04/11 01:49:27;;;;;;;11.37;10.10;;;;;;;9.79;100.00;101197.34;2532280;23;20181;-69
2023/04/11 01:50:28;;;;;;;10.67;9.57;;;;;;;10.10;100.00;101235.72;2533503;23;20389;-69
2023/04/11 01:51:28;;;;;;;12.00;9.13;;;;;;;10.48;100.00;101291.84;2532650;23;20192;-69
2023/04/11 01:52:29;;;;;;;10.40;9.33;;;;;;;10.42;100.00;101286.00;2533240;23;20181;-69
2023/04/11 01:53:29;;;;;;;11.63;9.53;;;;;;;10.44;100.00;101293.88;2532382;23;20161;-69
2023/04/11 01:54:30;;;;;;;11.33;9.63;;;;;;;10.20;100.00;101261.75;2533258;23;20176;-69
2023/04/11 01:55:30;;;;;;;12.33;8.70;;;;;;;10.01;100.00;101221.59;2533075;23;20181;-69
2023/04/11 01:56:31;;;;;;;10.57;9.43;;;;;;;10.46;100.00;101295.03;2533204;23;20228;-69
2023/04/11 01:57:31;;;;;;;11.37;9.87;;;;;;;10.37;100.00;101292.00;2532896;23;20160;-69
2023/04/11 01:58:31;;;;;;;11.67;9.27;;;;;;;10.43;100.00;101295.88;2520177;23;20161;-69
2023/04/11 01:59:32;;;;;;;12.10;9.60;;;;;;;10.45;100.00;101287.94;2519679;23;20613;-69
2023/04/11 02:00:35;;;;;;;12.20;9.93;;;;;;;10.46;100.00;101297.81;2532489;23;20720;-69
2023/04/11 02:01:36;;;;;;;10.13;9.13;;;;;;;10.50;100.00;101290.25;2532542;23;20228;-69
2023/04/11 02:02:37;;;;;;;12.20;9.77;;;;;;;10.51;100.00;101285.50;2533345;23;20155;-69
2023/04/11 02:03:38;;;;;;;10.53;9.37;;;;;;;10.37;100.00;101267.06;2532047;23;20163;-69
2023/04/11 02:04:38;;;;;;;10.50;9.50;;;;;;;10.03;100.00;101208.09;2533471;23;20731;-69
2023/04/11 02:05:39;;;;;;;10.83;9.47;;;;;;;10.36;100.00;101267.47;2533031;23;20184;-69
2023/04/11 02:06:39;;;;;;;10.53;9.33;;;;;;;10.40;100.00;101265.47;2533131;23;20614;-69
2023/04/11 02:07:40;;;;;;;11.43;8.27;;;;;;;10.43;100.00;101270.94;2533035;23;20184;-69
2023/04/11 02:08:40;;;;;;;16.07;9.80;;;;;;;10.54;100.00;101290.19;2533264;23;20597;-69
2023/04/11 02:09:40;;;;;;;10.83;9.70;;;;;;;10.52;100.00;101287.06;2532115;23;20152;-69
2023/04/11 02:10:41;;;;;;;13.73;8.90;;;;;;;10.50;100.00;101281.16;2532295;23;20152;-69
2023/04/11 02:11:41;;;;;;;9.57;8.57;;;;;;;10.55;100.00;101286.25;2532724;23;20152;-69
2023/04/11 02:12:42;;;;;;;10.77;9.67;;;;;;;10.49;100.00;101287.88;2533277;23;20639;-69
2023/04/11 02:13:42;;;;;;;9.93;8.93;;;;;;;10.47;100.00;101287.53;2519429;23;20162;-69
2023/04/11 02:14:44;;;;;;;10.07;9.07;;;;;;;10.46;100.00;101275.63;2520270;23;20230;-69
2023/04/11 02:15:44;;;;;;;9.50;8.57;;;;;;;10.21;100.00;101239.19;2532863;23;20232;-69
2023/04/11 02:16:53;;;;;;;9.50;8.33;;;;;;;10.06;100.00;101223.13;2533304;23;20394;-69
2023/04/11 02:17:54;;;;;;;9.70;8.70;;;;;;;10.48;100.00;101275.22;2533196;23;20658;-69
2023/04/11 02:18:55;;;;;;;9.07;8.17;;;;;;;10.51;100.00;101279.94;2533196;23;20500;-69
2023/04/11 02:19:56;;;;;;;9.65;8.65;;;;;;;10.44;100.00;101272.50;2532170;23;20566;-69
2023/04/11 02:20:57;;;;;;;11.77;8.98;;;;;;;10.23;100.00;101247.84;2519158;23;20160;-69
2023/04/11 02:21:57;;;;;;;15.57;10.03;;;;;;;10.45;100.00;101287.16;2520134;23;20157;-69
2023/04/11 02:22:59;;;;;;;13.27;9.20;;;;;;;10.42;100.00;101277.69;2533243;23;20154;-69
2023/04/11 02:24:00;;;;;;;10.13;8.53;;;;;;;10.09;100.00;101233.41;2532471;23;20161;-70
2023/04/11 02:25:00;;;;;;;11.47;8.80;;;;;;;9.80;100.00;101185.88;2532689;23;20383;-69
2023/04/11 02:26:01;;;;;;;11.27;9.77;;;;;;;10.39;100.00;101283.25;2532959;23;20609;-69
2023/04/11 02:27:02;;;;;;;13.37;9.77;;;;;;;10.36;100.00;101286.88;2533178;23;20157;-69
2023/04/11 02:28:02;;;;;;;10.53;9.10;;;;;;;9.90;100.00;101217.38;2532797;23;20389;-69
2023/04/11 02:29:02;;;;;;;10.20;8.93;;;;;;;10.40;100.00;101284.84;2532768;23;20157;-69
2023/04/11 02:30:04;;;;;;;10.10;9.10;;;;;;;10.38;100.00;101278.91;2532652;23;20158;-69
2023/04/11 02:31:05;;;;;;;10.03;9.00;;;;;;;10.38;100.00;101284.47;2531932;23;20495;-69
2023/04/11 02:32:05;;;;;;;10.37;9.13;;;;;;;10.28;100.00;101266.78;2533082;23;20478;-69
2023/04/11 02:33:06;;;;;;;10.73;9.17;;;;;;;10.42;100.00;101283.25;2533270;23;20158;-69
2023/04/11 02:34:06;;;;;;;9.97;8.97;;;;;;;10.33;100.00;101274.63;2532991;23;20180;-69
2023/04/11 02:35:07;;;;;;;11.00;9.90;;;;;;;10.44;100.00;101285.56;2532353;23;20154;-69
2023/04/11 02:36:08;;;;;;;11.30;9.97;;;;;;;10.43;100.00;101284.81;2532932;23;20294;-69
2023/04/11 02:37:08;;;;;;;10.37;9.30;;;;;;;10.46;100.00;101288.72;2533078;23;20169;-69
2023/04/11 02:38:09;;;;;;;10.40;9.20;;;;;;;10.48;100.00;101289.09;2532876;23;20162;-69
2023/04/11 02:39:09;;;;;;;10.60;9.50;;;;;;;10.46;100.00;101297.03;2532352;23;20150;-69
2023/04/11 02:40:10;;;;;;;12.00;9.90;;;;;;;10.44;100.00;101285.56;2519739;23;20157;-69
2023/04/11 02:41:10;;;;;;;15.03;9.73;;;;;;;10.30;100.00;101260.84;2519532;23;20593;-69
2023/04/11 02:42:12;;;;;;;12.87;10.43;;;;;;;10.47;100.00;101287.53;2519633;23;20357;-69
2023/04/11 02:43:12;;;;;;;11.53;9.47;;;;;;;10.49;100.00;101285.91;2520546;23;20151;-69
2023/04/11 02:44:13;;;;;;;14.10;10.13;;;;;;;9.65;100.00;101158.75;2532961;23;20386;-69
2023/04/11 02:45:13;;;;;;;13.07;9.80;;;;;;;10.48;100.00;101289.88;2532446;23;20208;-69
2023/04/11 02:46:14;;;;;;;10.50;9.47;;;;;;;10.48;100.00;101292.66;2519559;23;20560;-69
2023/04/11 02:47:14;;;;;;;11.40;10.20;;;;;;;10.49;100.00;101290.66;2520244;23;20275;-69
2023/04/11 02:48:15;;;;;;;10.83;9.70;;;;;;;10.50;100.00;101292.25;2532963;23;20166;-69
2023/04/11 02:49:15;;;;;;;10.67;9.57;;;;;;;10.51;100.00;101289.03;2532305;23;20154;-69
2023/04/11 02:50:16;;;;;;;10.83;9.73;;;;;;;10.51;100.00;101291.03;2533190;23;20209;-69
2023/04/11 02:51:16;;;;;;;9.73;8.73;;;;;;;10.42;100.00;101271.34;2532831;23;20728;-69
2023/04/11 02:52:17;;;;;;;11.17;9.97;;;;;;;10.56;100.00;101298.88;2532058;23;20213;-69
2023/04/11 02:53:18;;;;;;;11.90;10.30;;;;;;;10.50;100.00;101281.16;2532934;23;20150;-69
2023/04/11 02:54:18;;;;;;;10.93;9.83;;;;;;;10.59;100.00;101289.72;2533188;23;20474;-69
2023/04/11 02:55:21;;;;;;;12.03;10.83;;;;;;;10.57;100.00;101295.72;2533160;23;20154;-69
2023/04/11 02:56:22;;;;;;;11.20;10.03;;;;;;;10.54;100.00;101296.53;2532043;23;20185;-69
2023/04/11 02:57:22;;;;;;;10.90;9.80;;;;;;;10.56;100.00;101287.81;2532906;23;20386;-69
2023/04/11 02:58:24;;;;;;;11.97;10.77;;;;;;;10.54;100.00;101290.97;2518363;23;20203;-69
2023/04/11 02:59:25;;;;;;;11.17;10.07;;;;;;;10.54;100.00;101285.44;2519498;23;20198;-69
2023/04/11 03:00:25;;;;;;;11.47;10.37;;;;;;;10.55;100.00;101289.00;2532897;23;20414;-69
2023/04/11 03:01:26;;;;;;;11.70;10.33;;;;;;;10.17;100.00;101229.31;2532037;23;20584;-69
2023/04/11 03:02:28;;;;;;;15.43;10.57;;;;;;;10.56;100.00;101287.81;2532465;23;20157;-69
2023/04/11 03:03:29;;;;;;;12.03;10.73;;;;;;;10.56;100.00;101291.34;2532690;23;20154;-69
2023/04/11 03:04:29;;;;;;;12.57;9.70;;;;;;;10.47;100.00;101268.13;2520046;23;20470;-69
2023/04/11 03:05:29;;;;;;;11.63;9.97;;;;;;;10.56;100.00;101287.81;2520010;23;20147;-69
2023/04/11 03:06:30;;;;;;;11.80;10.07;;;;;;;10.30;100.00;101253.28;2531973;23;20150;-69
2023/04/11 03:07:31;;;;;;;10.90;9.77;;;;;;;10.55;100.00;101291.78;2532659;23;20184;-69
2023/04/11 03:08:34;;;;;;;13.03;10.10;;;;;;;10.56;100.00;101285.03;2533164;23;20177;-69
2023/04/11 03:09:35;;;;;;;11.23;10.00;;;;;;;10.48;100.00;101276.03;2532243;23;20381;-69
2023/04/11 03:10:36;;;;;;;12.63;10.33;;;;;;;10.48;100.00;101287.13;2532963;23;20378;-69
2023/04/11 03:11:36;;;;;;;13.83;10.17;;;;;;;10.22;100.00;101246.28;2532236;23;20483;-69
2023/04/11 03:12:37;;;;;;;11.73;10.33;;;;;;;10.48;100.00;101294.63;2532440;23;20234;-70
2023/04/11 03:13:38;;;;;;;11.30;9.80;;;;;;;10.45;100.00;101295.47;2532460;23;20150;-69
2023/04/11 03:14:38;;;;;;;11.50;9.87;;;;;;;10.40;100.00;101296.69;2533182;23;20402;-69
2023/04/11 03:15:39;;;;;;;11.20;10.00;;;;;;;10.40;100.00;101293.16;2532654;23;20493;-69
2023/04/11 03:16:39;;;;;;;11.90;10.53;;;;;;;10.38;100.00;101298.31;2532618;23;20157;-69
2023/04/11 03:17:40;;;;;;;11.70;10.50;;;;;;;10.35;100.00;101299.94;2532417;23;20210;-69
2023/04/11 03:18:41;;;;;;;12.77;10.77;;;;;;;10.19;100.00;101274.81;2532912;23;20154;-69
2023/04/11 03:19:41;;;;;;;12.13;10.93;;;;;;;10.32;100.00;101292.47;2531828;23;20237;-69
2023/04/11 03:20:41;;;;;;;11.07;9.90;;;;;;;10.34;100.00;101300.34;2532689;23;20628;-69
2023/04/11 03:21:42;;;;;;;11.93;10.73;;;;;;;10.32;100.00;101288.91;2532452;23;20623;-69
2023/04/11 03:22:42;;;;;;;14.60;11.27;;;;;;;10.24;100.00;101282.66;2532712;23;20154;-69
2023/04/11 03:23:43;;;;;;;11.83;10.60;;;;;;;10.31;100.00;101295.63;2532237;23;20229;-69
2023/04/11 03:24:43;;;;;;;11.47;10.27;;;;;;;9.96;100.00;101246.16;2532931;23;20150;-70
2023/04/11 03:25:44;;;;;;;12.27;10.70;;;;;;;9.73;100.00;101216.38;2532856;23;20173;-69
2023/04/11 03:26:44;;;;;;;12.30;11.00;;;;;;;9.89;100.00;101249.03;2520070;23;20159;-69
2023/04/11 03:27:45;;;;;;;12.43;10.60;;;;;;;10.07;100.00;101269.00;2518924;23;20190;-69
2023/04/11 03:28:45;;;;;;;11.83;10.53;;;;;;;10.25;100.00;101298.06;2532738;23;20181;-69
2023/04/11 03:29:46;;;;;;;11.37;10.27;;;;;;;10.23;100.00;101306.03;2531991;23;20589;-69
2023/04/11 03:30:47;;;;;;;12.03;10.57;;;;;;;10.18;100.00;101298.16;2519669;23;20162;-69
2023/04/11 03:31:48;;;;;;;12.00;10.37;;;;;;;10.13;100.00;101287.53;2519847;23;20161;-69
2023/04/11 03:32:48;;;;;;;13.97;10.57;;;;;;;10.24;100.00;101301.28;2532991;23;20390;-69
2023/04/11 03:33:49;;;;;;;13.57;10.97;;;;;;;10.24;100.00;101302.03;2532017;23;20161;-69
2023/04/11 03:34:49;;;;;;;13.30;10.63;;;;;;;10.25;100.00;101300.06;2532800;23;20238;-69
2023/04/11 03:35:50;;;;;;;12.97;11.00;;;;;;;10.26;100.00;101299.63;2532525;23;20157;-69
2023/04/11 03:36:51;;;;;;;11.40;10.20;;;;;;;10.26;100.00;101301.63;2532995;23;20389;-69
2023/04/11 03:37:52;;;;;;;12.83;11.13;;;;;;;10.24;100.00;101298.50;2531877;23;20182;-69
2023/04/11 03:38:52;;;;;;;13.50;10.67;;;;;;;10.25;100.00;101305.63;2532908;23;20886;-69
2023/04/11 03:39:52;;;;;;;13.83;11.17;;;;;;;10.26;100.00;101302.41;2531772;23;20165;-69
2023/04/11 03:40:53;;;;;;;12.77;10.83;;;;;;;9.18;100.00;101140.31;2532552;23;20175;-69
2023/04/11 03:41:53;;;;;;;12.50;11.20;;;;;;;10.26;100.00;101307.94;2532498;23;20154;-69
2023/04/11 03:42:55;;;;;;;18.00;11.40;;;;;;;10.28;100.00;101307.53;2533194;23;20158;-69
2023/04/11 03:43:55;;;;;;;30.33;12.00;;;;;;;10.27;100.00;101311.50;2518872;23;20186;-69
2023/04/11 03:44:55;;;;;;;44.27;12.33;;;;;;;10.02;100.00;101272.19;2520208;23;20435;-69
2023/04/11 03:45:56;;;;;;;17.03;10.73;;;;;;;10.27;100.00;101303.22;2532542;23;20153;-69
2023/04/11 03:46:56;;;;;;;16.63;10.57;;;;;;;9.61;100.00;101208.59;2532745;23;20503;-69
2023/04/11 03:47:57;;;;;;;21.97;10.77;;;;;;;10.19;100.00;101296.19;2519398;23;20186;-69
2023/04/11 03:48:57;;;;;;;16.30;11.30;;;;;;;10.25;100.00;101306.38;2519529;23;20513;-69
2023/04/11 03:50:00;;;;;;;15.80;10.87;;;;;;;10.15;100.00;101290.66;2531913;23;20209;-69
2023/04/11 03:51:00;;;;;;;14.77;11.50;;;;;;;10.27;100.00;101297.66;2532491;23;20547;-69
2023/04/11 03:52:00;;;;;;;11.53;10.43;;;;;;;10.24;100.00;101306.81;2532373;23;20406;-69
2023/04/11 03:53:01;;;;;;;12.83;11.23;;;;;;;10.26;100.00;101304.41;2532927;23;20181;-69
2023/04/11 03:54:01;;;;;;;13.47;10.80;;;;;;;10.07;100.00;101285.63;2531740;23;20300;-69
2023/04/11 03:55:04;;;;;;;12.03;9.93;;;;;;;9.87;100.00;101246.66;2532909;23;20155;-69
2023/04/11 03:56:05;;;;;;;12.00;9.80;;;;;;;9.97;100.00;101258.81;2532455;23;20621;-69
2023/04/11 03:57:06;;;;;;;11.60;10.40;;;;;;;10.02;100.00;101270.22;2532905;23;20469;-69
2023/04/11 03:58:06;;;;;;;12.37;10.93;;;;;;;10.25;100.00;101305.63;2532361;23;20289;-69
2023/04/11 03:59:06;;;;;;;12.43;10.70;;;;;;;10.26;100.00;101302.41;2531498;23;20158;-69
2023/04/11 04:00:07;;;;;;;12.07;10.33;;;;;;;10.24;100.00;101307.59;2532834;23;20169;-69
2023/04/11 04:01:08;;;;;;;12.17;10.73;;;;;;;10.23;100.00;101300.47;2532394;23;20510;-69
2023/04/11 04:02:08;;;;;;;12.77;11.40;;;;;;;10.22;100.00;101306.44;2532664;23;20378;-69
2023/04/11 04:03:09;;;;;;;12.77;11.47;;;;;;;10.17;100.00;101301.34;2532737;23;20241;-70
2023/04/11 04:04:09;;;;;;;13.23;11.83;;;;;;;9.98;100.00;101268.69;2532135;23;20180;-69
2023/04/11 04:05:10;;;;;;;12.40;11.20;;;;;;;10.24;100.00;101301.28;2532260;23;20158;-69
2023/04/11 04:06:10;;;;;;;14.43;11.47;;;;;;;10.23;100.00;101297.72;2532695;23;20233;-69
2023/04/11 04:07:11;;;;;;;13.20;11.83;;;;;;;9.63;100.00;101214.50;2532784;23;20153;-69
2023/04/11 04:08:12;;;;;;;13.00;11.63;;;;;;;10.21;100.00;101310.41;2532727;23;20183;-69
2023/04/11 04:09:13;;;;;;;14.97;11.67;;;;;;;10.25;100.00;101306.38;2531402;23;20151;-69
2023/04/11 04:10:13;;;;;;;15.23;10.83;;;;;;;10.19;100.00;101305.28;2532317;23;20940;-69
2023/04/11 04:11:13;;;;;;;13.23;11.83;;;;;;;10.18;100.00;101309.25;2532277;23;20493;-69
2023/04/11 04:12:16;;;;;;;12.53;11.33;;;;;;;10.19;100.00;101304.50;2532689;23;20225;-69
2023/04/11 04:13:16;;;;;;;14.03;11.23;;;;;;;10.18;100.00;101312.00;2532874;23;20154;-69
2023/04/11 04:14:17;;;;;;;13.80;11.03;;;;;;;10.16;100.00;101308.09;2532470;23;20386;-69
2023/04/11 04:15:17;;;;;;;14.70;11.73;;;;;;;9.85;100.00;101260.13;2531991;23;20154;-69
2023/04/11 04:16:18;;;;;;;15.30;11.13;;;;;;;10.16;100.00;101299.78;2532686;23;20208;-69
2023/04/11 04:17:18;;;;;;;13.40;10.73;;;;;;;10.13;100.00;101298.63;2532887;23;20154;-69
2023/04/11 04:18:19;;;;;;;21.07;11.83;;;;;;;10.09;100.00;101302.63;2532860;23;20593;-69
2023/04/11 04:19:19;;;;;;;13.03;11.73;;;;;;;10.09;100.00;101300.63;2531975;23;20150;-69
2023/04/11 04:20:20;;;;;;;13.70;11.50;;;;;;;10.10;100.00;101312.50;2532115;23;20174;-70
2023/04/11 04:21:20;;;;;;;16.03;12.33;;;;;;;10.08;100.00;101307.38;2532249;23;20234;-69
2023/04/11 04:22:22;;;;;;;13.20;11.80;;;;;;;10.05;100.00;101310.97;2532632;23;20675;-69
2023/04/11 04:23:23;;;;;;;17.90;13.20;;;;;;;10.07;100.00;101310.56;2532420;23;20161;-69
2023/04/11 04:24:26;;;;;;;13.43;12.00;;;;;;;10.06;100.00;101300.69;2532533;23;20386;-69
2023/04/11 04:25:27;;;;;;;13.37;11.97;;;;;;;9.60;100.00;101250.50;2531885;23;20154;-69
2023/04/11 04:26:28;;;;;;;13.80;12.40;;;;;;;9.95;100.00;101299.97;2532729;23;20459;-69
2023/04/11 04:27:29;;;;;;;14.17;12.67;;;;;;;9.56;100.00;101261.63;2519430;23;20674;-69
2023/04/11 04:28:29;;;;;;;13.17;11.77;;;;;;;9.93;100.00;101303.16;2519360;23;20764;-69
2023/04/11 04:29:37;;;;;;;14.37;12.83;;;;;;;9.92;100.00;101301.59;2531967;23;20225;-69
2023/04/11 04:30:37;;;;;;;15.53;12.10;;;;;;;9.92;100.00;101303.56;2519198;23;20158;-69
2023/04/11 04:31:37;;;;;;;20.33;12.57;;;;;;;9.92;100.00;101303.56;2518994;23;20884;-69
2023/04/11 04:32:39;;;;;;;28.67;12.50;;;;;;;9.91;100.00;101294.50;2532802;23;20177;-69
2023/04/11 04:33:41;;;;;;;17.30;13.07;;;;;;;9.90;100.00;101298.44;2532350;23;20165;-69
2023/04/11 04:34:45;;;;;;;17.63;11.80;;;;;;;9.92;100.00;101298.03;2532642;23;20383;-69
2023/04/11 04:35:46;;;;;;;15.87;12.70;;;;;;;9.64;100.00;101274.19;2531824;23;20392;-69